createdAt,value
2023-05-11T00:02:45.639Z,10.85
2023-05-11T00:05:30.719Z,10.87
2023-05-11T00:08:17.382Z,10.81
2023-05-11T00:11:02.507Z,10.68
2023-05-11T00:13:47.684Z,10.71
2023-05-11T00:16:33.123Z,10.63
2023-05-11T00:19:17.860Z,10.42
2023-05-11T00:22:03.572Z,10.55
2023-05-11T00:24:48.638Z,10.53
2023-05-11T00:27:33.949Z,10.49
2023-05-11T00:30:19.554Z,10.33
2023-05-11T00:33:05.401Z,10.29
2023-05-11T00:35:51.093Z,10.35
2023-05-11T00:38:40.417Z,10.25
2023-05-11T00:41:25.935Z,10.12
2023-05-11T00:44:11.343Z,10.11
2023-05-11T00:46:57.673Z,10.21
2023-05-11T00:49:44.018Z,10.21
2023-05-11T00:52:29.933Z,10.21
2023-05-11T00:55:18.532Z,10.20
2023-05-11T00:58:05.641Z,10.23
2023-05-11T01:00:51.012Z,10.21
2023-05-11T01:03:36.718Z,10.21
2023-05-11T01:06:36.144Z,10.21
2023-05-11T01:09:35.890Z,10.22
2023-05-11T01:12:46.090Z,10.22
2023-05-11T01:15:58.543Z,10.22
2023-05-11T01:18:58.419Z,10.27
2023-05-11T01:21:46.213Z,10.26
2023-05-11T01:25:05.532Z,10.28
2023-05-11T01:28:15.375Z,10.29
2023-05-11T01:31:11.694Z,10.25
2023-05-11T01:34:13.831Z,10.28
2023-05-11T01:37:10.398Z,10.22
2023-05-11T01:39:59.005Z,10.01
2023-05-11T01:42:53.793Z,10.10
2023-05-11T01:45:43.435Z,10.07
2023-05-11T01:48:31.930Z,10.08
2023-05-11T01:51:19.303Z,10.01
2023-05-11T01:54:09.387Z,10.05
2023-05-11T01:56:55.470Z,10.01
2023-05-11T01:59:41.258Z,10.08
2023-05-11T02:02:27.300Z,10.10
2023-05-11T02:05:22.564Z,10.10
2023-05-11T02:08:09.706Z,10.18
2023-05-11T02:10:56.151Z,10.22
2023-05-11T02:13:43.518Z,10.23
2023-05-11T02:16:31.985Z,10.23
2023-05-11T02:19:17.822Z,10.29
2023-05-11T02:22:04.972Z,10.28
2023-05-11T02:24:50.216Z,10.35
2023-05-11T02:27:38.772Z,10.28
2023-05-11T02:30:27.068Z,10.33
2023-05-11T02:33:17.842Z,10.32
2023-05-11T02:36:05.539Z,10.36
2023-05-11T02:38:58.265Z,10.28
2023-05-11T02:41:46.045Z,10.22
2023-05-11T02:44:36.287Z,10.19
2023-05-11T02:47:23.173Z,10.12
2023-05-11T02:50:09.642Z,10.09
2023-05-11T02:52:57.767Z,10.05
2023-05-11T02:55:42.937Z,10.06
2023-05-11T02:58:29.950Z,10.04
2023-05-11T03:01:15.475Z,9.99
2023-05-11T03:04:04.296Z,9.93
2023-05-11T03:06:49.845Z,9.91
2023-05-11T03:09:35.251Z,9.92
2023-05-11T03:12:21.330Z,9.76
2023-05-11T03:15:07.731Z,9.82
2023-05-11T03:17:53.813Z,9.73
2023-05-11T03:20:42.084Z,9.80
2023-05-11T03:23:27.964Z,9.69
2023-05-11T03:26:13.603Z,9.85
2023-05-11T03:29:00.212Z,9.84
2023-05-11T03:31:45.601Z,9.83
2023-05-11T03:34:30.914Z,9.83
2023-05-11T03:37:18.033Z,9.91
2023-05-11T03:40:04.091Z,9.94
2023-05-11T03:42:52.510Z,9.97
2023-05-11T03:45:39.221Z,9.82
2023-05-11T03:48:24.521Z,9.79
2023-05-11T03:51:11.024Z,9.72
2023-05-11T03:53:56.410Z,9.65
2023-05-11T03:56:41.503Z,9.59
2023-05-11T03:59:26.485Z,9.52
2023-05-11T04:02:11.574Z,9.42
2023-05-11T04:04:56.684Z,9.40
2023-05-11T04:07:41.631Z,9.52
2023-05-11T04:10:26.641Z,9.51
2023-05-11T04:13:11.882Z,9.48
2023-05-11T04:15:56.692Z,9.44
2023-05-11T04:18:41.697Z,9.41
2023-05-11T04:21:26.490Z,9.32
2023-05-11T04:24:11.768Z,9.37
2023-05-11T04:26:57.532Z,9.31
2023-05-11T04:29:42.902Z,9.36
2023-05-11T04:32:29.220Z,9.40
2023-05-11T04:35:14.444Z,9.37
2023-05-11T04:37:59.787Z,9.36
2023-05-11T04:40:44.553Z,9.40
2023-05-11T04:43:29.592Z,9.41
2023-05-11T04:46:15.295Z,9.31
2023-05-11T04:49:00.517Z,9.35
2023-05-11T04:51:45.840Z,9.28
2023-05-11T04:54:31.189Z,9.26
2023-05-11T04:57:16.539Z,9.31
2023-05-11T05:00:01.828Z,9.32
2023-05-11T05:02:46.780Z,9.35
2023-05-11T05:05:31.815Z,9.37
2023-05-11T05:08:18.663Z,9.42
2023-05-11T05:11:03.970Z,9.42
2023-05-11T05:13:48.868Z,9.46
2023-05-11T05:16:34.124Z,9.56
2023-05-11T05:19:19.401Z,9.65
2023-05-11T05:22:05.308Z,9.74
2023-05-11T05:24:50.640Z,9.81
2023-05-11T05:27:35.597Z,9.87
2023-05-11T05:30:20.777Z,9.84
2023-05-11T05:33:05.942Z,9.91
2023-05-11T05:35:50.997Z,10.02
2023-05-11T05:38:36.378Z,10.03
2023-05-11T05:41:22.293Z,10.08
2023-05-11T05:44:07.544Z,10.10
2023-05-11T05:46:52.812Z,10.06
2023-05-11T05:49:38.184Z,10.27
2023-05-11T05:52:23.335Z,10.31
2023-05-11T05:55:08.769Z,10.36
2023-05-11T05:57:53.949Z,10.41
2023-05-11T06:00:39.251Z,10.31
2023-05-11T06:03:25.844Z,10.44
2023-05-11T06:06:12.961Z,10.59
2023-05-11T06:08:58.122Z,10.64
2023-05-11T06:11:43.124Z,10.81
2023-05-11T06:14:28.186Z,10.92
2023-05-11T06:17:13.306Z,11.02
2023-05-11T06:19:58.489Z,11.09
2023-05-11T06:22:43.614Z,11.00
2023-05-11T06:25:28.977Z,10.99
2023-05-11T06:28:14.217Z,11.00
2023-05-11T06:30:59.537Z,10.88
2023-05-11T06:33:44.658Z,11.05
2023-05-11T06:36:29.701Z,11.16
2023-05-11T06:39:14.769Z,11.32
2023-05-11T06:42:02.956Z,11.43
2023-05-11T06:44:50.217Z,11.47
2023-05-11T06:47:35.745Z,11.68
2023-05-11T06:50:21.606Z,12.00
2023-05-11T06:53:08.103Z,12.17
2023-05-11T06:55:54.723Z,12.18
2023-05-11T06:58:39.968Z,12.15
2023-05-11T07:01:25.178Z,12.15
2023-05-11T07:04:10.508Z,12.34
2023-05-11T07:06:55.562Z,12.55
2023-05-11T07:09:42.109Z,12.60
2023-05-11T07:12:27.228Z,12.62
2023-05-11T07:15:12.517Z,12.67
2023-05-11T07:17:57.783Z,12.43
2023-05-11T07:20:43.055Z,12.62
2023-05-11T07:23:28.248Z,12.63
2023-05-11T07:26:13.128Z,12.61
2023-05-11T07:28:58.347Z,12.69
2023-05-11T07:31:44.061Z,12.80
2023-05-11T07:34:29.294Z,12.82
2023-05-11T07:37:14.304Z,12.98
2023-05-11T07:39:59.575Z,13.11
2023-05-11T07:42:44.795Z,13.25
2023-05-11T07:45:30.081Z,13.38
2023-05-11T07:48:15.312Z,13.66
2023-05-11T07:51:01.560Z,13.77
2023-05-11T07:53:46.724Z,13.80
2023-05-11T07:56:31.867Z,13.98
2023-05-11T07:59:16.796Z,14.06
2023-05-11T08:02:01.946Z,14.07
2023-05-11T08:04:47.076Z,13.99
2023-05-11T08:07:32.435Z,14.07
2023-05-11T08:10:17.351Z,14.17
2023-05-11T08:13:02.585Z,14.25
2023-05-11T08:15:48.243Z,14.24
2023-05-11T08:18:33.176Z,14.29
2023-05-11T08:21:18.626Z,14.28
2023-05-11T08:24:03.890Z,14.19
2023-05-11T08:26:49.707Z,14.22
2023-05-11T08:29:34.852Z,14.35
2023-05-11T08:32:20.187Z,14.53
2023-05-11T08:35:06.076Z,14.69
2023-05-11T08:37:51.521Z,14.68
2023-05-11T08:40:37.072Z,14.81
2023-05-11T08:43:23.231Z,14.83
2023-05-11T08:46:11.153Z,14.78
2023-05-11T08:48:58.230Z,14.78
2023-05-11T08:51:43.492Z,14.75
2023-05-11T08:54:28.784Z,14.91
2023-05-11T08:57:14.841Z,15.06
2023-05-11T09:00:02.149Z,15.15
2023-05-11T09:02:48.371Z,15.50
2023-05-11T09:05:36.259Z,15.62
2023-05-11T09:08:22.705Z,15.72
2023-05-11T09:11:08.271Z,15.91
2023-05-11T09:13:53.754Z,16.18
2023-05-11T09:16:38.747Z,16.51
2023-05-11T09:19:24.124Z,16.65
2023-05-11T09:22:09.293Z,16.53
2023-05-11T09:24:54.567Z,16.62
2023-05-11T09:27:47.204Z,16.56
2023-05-11T09:30:34.023Z,16.44
2023-05-11T09:33:24.479Z,16.69
2023-05-11T09:36:23.382Z,16.69
2023-05-11T09:39:15.397Z,16.87
2023-05-11T09:42:21.532Z,16.73
2023-05-11T09:45:08.651Z,16.51
2023-05-11T09:47:53.943Z,16.37
2023-05-11T09:50:38.943Z,16.37
2023-05-11T09:53:42.662Z,16.29
2023-05-11T09:56:48.096Z,16.15
2023-05-11T09:59:38.177Z,16.29
2023-05-11T10:02:28.007Z,16.96
2023-05-11T10:05:13.562Z,17.15
2023-05-11T10:08:00.797Z,17.56
2023-05-11T10:10:46.030Z,17.49
2023-05-11T10:13:32.658Z,17.60
2023-05-11T10:16:19.375Z,17.80
2023-05-11T10:19:04.726Z,17.76
2023-05-11T10:21:52.379Z,17.54
2023-05-11T10:24:38.830Z,17.96
2023-05-11T10:27:24.505Z,18.43
2023-05-11T10:30:10.937Z,18.45
2023-05-11T10:32:57.472Z,18.63
2023-05-11T10:35:45.110Z,18.84
2023-05-11T10:38:30.183Z,18.58
2023-05-11T10:41:55.676Z,18.63
2023-05-11T10:45:02.267Z,18.92
2023-05-11T10:48:12.161Z,18.68
2023-05-11T10:51:16.093Z,18.34
2023-05-11T10:54:16.611Z,18.23
2023-05-11T10:57:30.992Z,18.22
2023-05-11T11:01:13.383Z,18.53
2023-05-11T11:04:05.685Z,18.76
2023-05-11T11:07:07.024Z,18.43
2023-05-11T11:09:57.111Z,18.64
2023-05-11T11:13:01.873Z,18.30
2023-05-11T11:15:53.487Z,18.11
2023-05-11T11:18:38.691Z,18.10
2023-05-11T11:21:41.532Z,18.10
2023-05-11T11:24:39.049Z,18.08
2023-05-11T11:27:43.659Z,17.99
2023-05-11T11:30:30.580Z,17.97
2023-05-11T11:33:16.194Z,17.85
2023-05-11T11:36:01.622Z,17.88
2023-05-11T11:39:00.254Z,17.84
2023-05-11T11:41:46.370Z,17.73
2023-05-11T11:44:33.479Z,17.51
2023-05-11T11:47:20.470Z,17.32
2023-05-11T11:50:13.156Z,17.23
2023-05-11T11:52:58.338Z,17.14
2023-05-11T11:55:48.710Z,17.03
2023-05-11T11:58:46.227Z,17.02
2023-05-11T12:01:37.481Z,17.06
2023-05-11T12:04:45.034Z,17.05
2023-05-11T12:07:34.303Z,16.97
2023-05-11T12:10:21.932Z,16.95
2023-05-11T12:13:09.592Z,16.96
2023-05-11T12:16:12.382Z,16.89
2023-05-11T12:19:01.733Z,16.95
2023-05-11T12:21:47.114Z,17.16
2023-05-11T12:24:32.158Z,17.74
2023-05-11T12:27:19.019Z,17.79
2023-05-11T12:30:04.661Z,17.91
2023-05-11T12:32:56.528Z,17.84
2023-05-11T12:35:45.536Z,18.17
2023-05-11T12:38:30.472Z,18.29
2023-05-11T12:41:22.799Z,18.45
2023-05-11T12:44:07.987Z,18.27
2023-05-11T12:46:53.672Z,18.86
2023-05-11T12:49:41.588Z,19.50
2023-05-11T12:52:26.647Z,20.15
2023-05-11T12:55:11.894Z,20.62
2023-05-11T12:58:16.096Z,20.77
2023-05-11T13:01:01.630Z,21.15
2023-05-11T13:03:47.858Z,21.32
2023-05-11T13:06:33.450Z,21.25
2023-05-11T13:09:24.096Z,21.45
2023-05-11T13:12:20.766Z,21.31
2023-05-11T13:15:13.820Z,21.57
2023-05-11T13:18:00.772Z,21.91
2023-05-11T13:20:46.496Z,22.25
2023-05-11T13:23:31.766Z,22.43
2023-05-11T13:26:29.138Z,22.35
2023-05-11T13:29:14.344Z,22.42
2023-05-11T13:31:59.700Z,22.37
2023-05-11T13:34:44.928Z,22.10
2023-05-11T13:37:30.327Z,21.95
2023-05-11T13:40:15.353Z,21.79
2023-05-11T13:43:00.817Z,22.33
2023-05-11T13:45:46.215Z,22.97
2023-05-11T13:48:32.292Z,23.57
2023-05-11T13:51:17.482Z,23.86
2023-05-11T13:54:02.599Z,24.24
2023-05-11T13:56:48.243Z,23.61
2023-05-11T13:59:33.124Z,22.75
2023-05-11T14:02:18.024Z,22.40
2023-05-11T14:05:03.018Z,22.48
2023-05-11T14:07:49.145Z,23.49
2023-05-11T14:10:34.682Z,23.48
2023-05-11T14:13:19.601Z,22.68
2023-05-11T14:16:05.339Z,22.02
2023-05-11T14:18:50.757Z,21.39
2023-05-11T14:21:36.632Z,20.31
2023-05-11T14:24:22.586Z,19.12
2023-05-11T14:27:07.626Z,18.48
2023-05-11T14:29:52.706Z,18.12
2023-05-11T14:32:37.831Z,17.88
2023-05-11T14:35:22.884Z,17.67
2023-05-11T14:38:07.841Z,17.44
2023-05-11T14:40:52.763Z,17.07
2023-05-11T14:43:39.936Z,17.06
2023-05-11T14:46:26.710Z,16.89
2023-05-11T14:49:12.435Z,16.72
2023-05-11T14:51:58.044Z,16.60
2023-05-11T14:54:43.199Z,16.48
2023-05-11T14:57:28.357Z,16.49
2023-05-11T15:00:14.001Z,16.40
2023-05-11T15:02:59.213Z,16.31
2023-05-11T15:05:46.591Z,16.25
2023-05-11T15:08:32.555Z,16.27
2023-05-11T15:11:18.509Z,16.14
2023-05-11T15:14:11.806Z,16.09
2023-05-11T15:16:59.530Z,15.84
2023-05-11T15:19:44.655Z,15.66
2023-05-11T15:22:29.996Z,15.60
2023-05-11T15:25:15.091Z,15.67
2023-05-11T15:28:00.606Z,15.72
2023-05-11T15:30:47.016Z,15.63
2023-05-11T15:33:33.299Z,15.57
2023-05-11T15:36:18.562Z,15.42
2023-05-11T15:39:03.980Z,15.18
2023-05-11T15:41:49.059Z,15.35
2023-05-11T15:44:35.190Z,15.49
2023-05-11T15:47:20.501Z,15.47
2023-05-11T15:50:06.468Z,15.66
2023-05-11T15:52:51.530Z,15.77
2023-05-11T15:55:37.192Z,15.82
2023-05-11T15:58:22.791Z,15.93
2023-05-11T16:01:08.147Z,16.01
2023-05-11T16:03:53.205Z,15.91
2023-05-11T16:06:38.281Z,15.98
2023-05-11T16:09:23.473Z,16.04
2023-05-11T16:12:08.973Z,15.87
2023-05-11T16:14:53.786Z,15.95
2023-05-11T16:17:38.962Z,15.87
2023-05-11T16:20:24.299Z,15.81
2023-05-11T16:23:09.425Z,15.80
2023-05-11T16:25:56.332Z,15.75
2023-05-11T16:28:42.636Z,15.65
2023-05-11T16:31:27.711Z,15.44
2023-05-11T16:34:12.515Z,15.44
2023-05-11T16:36:59.201Z,15.48
2023-05-11T16:39:44.814Z,15.46
2023-05-11T16:42:30.209Z,15.46
2023-05-11T16:45:16.505Z,15.32
2023-05-11T16:48:02.033Z,15.29
2023-05-11T16:50:47.532Z,15.27
2023-05-11T16:53:32.493Z,15.23
2023-05-11T16:56:18.085Z,15.19
2023-05-11T16:59:03.660Z,15.13
2023-05-11T17:01:49.390Z,14.98
2023-05-11T17:04:34.917Z,15.10
2023-05-11T17:07:19.941Z,14.99
2023-05-11T17:10:05.713Z,14.92
2023-05-11T17:12:51.265Z,14.96
2023-05-11T17:15:36.511Z,14.89
2023-05-11T17:18:22.053Z,14.85
2023-05-11T17:21:07.145Z,14.75
2023-05-11T17:23:53.088Z,14.71
2023-05-11T17:26:47.061Z,14.65
2023-05-11T17:29:33.453Z,14.54
2023-05-11T17:32:18.903Z,14.63
2023-05-11T17:35:04.661Z,14.47
2023-05-11T17:37:49.793Z,14.49
2023-05-11T17:40:35.061Z,14.39
2023-05-11T17:43:20.350Z,14.35
2023-05-11T17:46:05.521Z,14.35
2023-05-11T17:48:52.530Z,14.40
2023-05-11T17:51:37.865Z,14.38
2023-05-11T17:54:22.991Z,14.34
2023-05-11T17:57:08.189Z,14.33
2023-05-11T17:59:53.514Z,14.10
2023-05-11T18:02:38.775Z,14.19
2023-05-11T18:05:33.427Z,14.17
2023-05-11T18:08:26.067Z,14.11
2023-05-11T18:11:12.645Z,14.08
2023-05-11T18:13:57.615Z,13.91
2023-05-11T18:16:43.468Z,13.99
2023-05-11T18:19:28.886Z,13.89
2023-05-11T18:22:14.138Z,13.86
2023-05-11T18:24:59.518Z,13.83
2023-05-11T18:27:44.712Z,13.86
2023-05-11T18:30:30.574Z,13.90
2023-05-11T18:33:15.644Z,13.94
2023-05-11T18:36:02.025Z,13.88
2023-05-11T18:38:48.862Z,13.89
2023-05-11T18:41:34.600Z,13.87
2023-05-11T18:44:19.752Z,13.86
2023-05-11T18:47:05.458Z,13.85
2023-05-11T18:49:51.100Z,13.84
2023-05-11T18:52:36.211Z,13.86
2023-05-11T18:55:21.240Z,13.80
2023-05-11T18:58:06.640Z,13.75
2023-05-11T19:00:52.178Z,13.60
2023-05-11T19:03:38.480Z,13.62
2023-05-11T19:06:23.890Z,13.58
2023-05-11T19:09:08.959Z,13.54
2023-05-11T19:11:54.295Z,13.52
2023-05-11T19:14:39.772Z,13.47
2023-05-11T19:17:25.055Z,13.36
2023-05-11T19:20:11.782Z,13.30
2023-05-11T19:22:57.609Z,13.25
2023-05-11T19:25:42.867Z,13.24
2023-05-11T19:28:27.958Z,13.17
2023-05-11T19:31:13.404Z,13.12
2023-05-11T19:33:59.056Z,13.12
2023-05-11T19:36:43.963Z,13.15
2023-05-11T19:39:28.919Z,13.18
2023-05-11T19:42:14.049Z,13.10
2023-05-11T19:44:59.142Z,13.11
2023-05-11T19:47:44.671Z,12.92
2023-05-11T19:50:29.896Z,12.86
2023-05-11T19:53:15.301Z,12.77
2023-05-11T19:56:00.575Z,12.75
2023-05-11T19:58:45.713Z,12.70
2023-05-11T20:01:30.696Z,12.62
2023-05-11T20:04:15.625Z,12.61
2023-05-11T20:07:00.882Z,12.43
2023-05-11T20:09:45.982Z,12.38
2023-05-11T20:12:31.435Z,12.39
2023-05-11T20:15:17.070Z,12.26
2023-05-11T20:18:04.920Z,12.00
2023-05-11T20:20:49.909Z,12.08
2023-05-11T20:23:36.605Z,12.02
2023-05-11T20:26:22.793Z,12.03
2023-05-11T20:29:09.262Z,12.00
2023-05-11T20:31:54.418Z,11.85
2023-05-11T20:34:39.854Z,11.78
2023-05-11T20:37:24.821Z,11.94
2023-05-11T20:40:10.316Z,11.90
2023-05-11T20:42:55.210Z,11.89
2023-05-11T20:45:40.388Z,11.86
2023-05-11T20:48:36.187Z,11.85
2023-05-11T20:51:25.115Z,11.73
2023-05-11T20:54:11.555Z,11.61
2023-05-11T20:56:56.463Z,11.54
2023-05-11T21:02:29.974Z,11.56
2023-05-11T21:05:15.295Z,11.48
2023-05-11T21:08:00.670Z,11.26
2023-05-11T21:10:45.449Z,11.23
2023-05-11T21:13:30.705Z,11.24
2023-05-11T21:16:16.005Z,11.32
2023-05-11T21:19:01.297Z,11.27
2023-05-11T21:21:49.425Z,11.11
2023-05-11T21:24:37.536Z,11.02
2023-05-11T21:27:22.617Z,10.96
2023-05-11T21:30:09.212Z,10.87
2023-05-11T21:32:54.210Z,10.92
2023-05-11T21:35:39.173Z,10.91
2023-05-11T21:38:24.293Z,10.82
2023-05-11T21:41:09.558Z,10.89
2023-05-11T21:43:54.415Z,10.87
2023-05-11T21:46:39.331Z,10.79
2023-05-11T21:49:24.262Z,10.66
2023-05-11T21:52:09.758Z,10.61
2023-05-11T21:54:54.729Z,10.68
2023-05-11T21:57:39.771Z,10.67
2023-05-11T22:00:25.159Z,10.58
2023-05-11T22:03:10.412Z,10.51
2023-05-11T22:05:55.816Z,10.54
2023-05-11T22:08:40.894Z,10.55
2023-05-11T22:11:26.734Z,10.50
2023-05-11T22:14:11.957Z,10.44
2023-05-11T22:16:57.323Z,10.41
2023-05-11T22:19:42.502Z,10.27
2023-05-11T22:22:27.564Z,10.31
2023-05-11T22:25:12.850Z,10.32
2023-05-11T22:27:58.287Z,10.23
2023-05-11T22:30:43.176Z,10.24
2023-05-11T22:33:28.095Z,10.25
2023-05-11T22:36:13.047Z,10.20
2023-05-11T22:38:58.247Z,10.06
2023-05-11T22:41:43.219Z,10.00
2023-05-11T22:44:28.352Z,9.89
2023-05-11T22:47:13.745Z,9.81
2023-05-11T22:49:58.844Z,9.82
2023-05-11T22:52:43.794Z,9.86
2023-05-11T22:55:28.851Z,9.72
2023-05-11T22:58:14.501Z,9.64
2023-05-11T23:01:00.602Z,9.77
2023-05-11T23:03:46.544Z,9.77
2023-05-11T23:06:46.646Z,9.78
2023-05-11T23:09:31.984Z,9.54
2023-05-11T23:12:17.515Z,9.47
2023-05-11T23:15:02.645Z,9.53
2023-05-11T23:17:47.991Z,9.54
2023-05-11T23:20:33.281Z,9.50
2023-05-11T23:23:18.381Z,9.44
2023-05-11T23:26:03.388Z,9.32
2023-05-11T23:28:48.557Z,9.27
2023-05-11T23:31:34.245Z,9.37
2023-05-11T23:34:19.564Z,9.17
2023-05-11T23:37:04.740Z,9.04
2023-05-11T23:39:49.759Z,9.15
2023-05-11T23:42:35.061Z,9.16
2023-05-11T23:45:20.174Z,9.09
2023-05-11T23:48:06.066Z,9.03
2023-05-11T23:50:51.371Z,8.95
2023-05-11T23:53:36.663Z,8.89
2023-05-11T23:56:21.631Z,8.97
2023-05-11T23:59:06.689Z,9.00
